Isabella, Oklahoma
Current Conditions -  °F | °C
As of 4:58 AM on Saturday 20 Dec 2014 (Local Time) from KEND Reporting Station
Overcast Overcast  
Wind Chill: 26°   Ceiling: 2800
Heat Index: 32°   Visibility: 7mi
Dew Point: 30°   Wind: 6mph
Humidity: 95%   Direction: 160°SSE
Pressure: 30.17"   Gusts: NA
Location:  36.24°N, 98.34°W
Report Text: KEND 201058Z AUTO 16005KT 7SM R17C/5500FT OVC028 00/M01 A3017 RMK AO2 OVC V BKN SLP228 T10021009 $
Loading
Personal Weather Stations






























Interactive Weather Map New forecast layout! Learn more

10-Day Weather Forecast

Advertisements
Track Severe Weather on mobile